AVA9347 SKSP-SKRG
Flight info
| Callsign | AVA9347 |
|---|---|
| Flight time | N/A |
| Altitude | 37000 |
| Route | BODED2B BODED DCT VUNIB UP530 KAKOL B689 OPMEL OPMEL4A |
| Aircraft | A320/M-SDEFGHIRWYZ/LB1 |
Departure
| Time | 2026-05-07 10:02 |
|---|---|
| Airport | Gustavo Rojas Pinilla International Airport (SKSP) |
Arrival
| Time | N/A |
|---|---|
| Airport | Jose Maria Córdova International Airport (SKRG) |
| Time | Latitude | Longitude | Altitude | Speed | Heading |
|---|---|---|---|---|---|
| 2026-05-07 09:31 | 12.58689 | -81.70224 | 27 ft | 0 kts | 149° |
| 2026-05-07 09:50 | 12.58703 | -81.70232 | 27 ft | 2 kts | 149° |
| 2026-05-07 09:51 | 12.58717 | -81.70241 | 27 ft | 2 kts | 149° |
| 2026-05-07 09:51 | 12.58731 | -81.70249 | 27 ft | 2 kts | 149° |
| 2026-05-07 09:51 | 12.58746 | -81.70259 | 27 ft | 2 kts | 152° |
| 2026-05-07 09:51 | 12.58763 | -81.70257 | 27 ft | 2 kts | 224° |
| 2026-05-07 09:52 | 12.58772 | -81.70239 | 27 ft | 2 kts | 240° |
| 2026-05-07 09:52 | 12.58773 | -81.70238 | 27 ft | 4 kts | 242° |
| 2026-05-07 09:52 | 12.58756 | -81.70271 | 27 ft | 2 kts | 242° |
| 2026-05-07 09:52 | 12.58754 | -81.70275 | 27 ft | 0 kts | 242° |
| 2026-05-07 09:54 | 12.58752 | -81.70278 | 27 ft | 1 kts | 242° |
| 2026-05-07 09:54 | 12.58742 | -81.70297 | 27 ft | 4 kts | 240° |
| 2026-05-07 09:55 | 12.58726 | -81.70325 | 27 ft | 3 kts | 241° |
| 2026-05-07 09:55 | 12.58715 | -81.70352 | 27 ft | 3 kts | 260° |
| 2026-05-07 09:55 | 12.58720 | -81.70383 | 27 ft | 3 kts | 292° |
| 2026-05-07 09:55 | 12.58732 | -81.70413 | 27 ft | 4 kts | 293° |
| 2026-05-07 09:56 | 12.58742 | -81.70449 | 27 ft | 4 kts | 263° |
| 2026-05-07 09:56 | 12.58723 | -81.70490 | 27 ft | 5 kts | 240° |
| 2026-05-07 09:56 | 12.58698 | -81.70533 | 27 ft | 5 kts | 239° |
| 2026-05-07 09:56 | 12.58674 | -81.70576 | 27 ft | 6 kts | 239° |
| 2026-05-07 09:57 | 12.58645 | -81.70626 | 27 ft | 7 kts | 239° |
| 2026-05-07 09:57 | 12.58609 | -81.70688 | 27 ft | 9 kts | 239° |
| 2026-05-07 09:57 | 12.58566 | -81.70761 | 27 ft | 10 kts | 239° |
| 2026-05-07 09:57 | 12.58518 | -81.70843 | 27 ft | 11 kts | 239° |
| 2026-05-07 09:58 | 12.58466 | -81.70936 | 27 ft | 13 kts | 240° |
| 2026-05-07 09:58 | 12.58410 | -81.71036 | 27 ft | 13 kts | 240° |
| 2026-05-07 09:58 | 12.58349 | -81.71141 | 27 ft | 14 kts | 238° |
| 2026-05-07 09:58 | 12.58285 | -81.71251 | 27 ft | 15 kts | 240° |
| 2026-05-07 09:59 | 12.58219 | -81.71367 | 27 ft | 15 kts | 239° |
| 2026-05-07 09:59 | 12.58151 | -81.71484 | 27 ft | 16 kts | 239° |
| 2026-05-07 09:59 | 12.58080 | -81.71607 | 27 ft | 16 kts | 239° |
| 2026-05-07 09:59 | 12.58007 | -81.71734 | 27 ft | 17 kts | 240° |
| 2026-05-07 10:00 | 12.57933 | -81.71864 | 27 ft | 17 kts | 239° |
| 2026-05-07 10:00 | 12.57866 | -81.71971 | 27 ft | 8 kts | 216° |
| 2026-05-07 10:00 | 12.57812 | -81.72015 | 27 ft | 8 kts | 254° |
| 2026-05-07 10:00 | 12.57841 | -81.72033 | 27 ft | 5 kts | 46° |
| 2026-05-07 10:01 | 12.57859 | -81.71995 | 27 ft | 0 kts | 60° |
| 2026-05-07 10:01 | 12.57939 | -81.71854 | 27 ft | 58 kts | 59° |
| 2026-05-07 10:02 | 12.58351 | -81.71137 | 27 ft | 135 kts | 59° |
| 2026-05-07 10:02 | 12.59026 | -81.69997 | 342 ft | 165 kts | 59° |
| 2026-05-07 10:02 | 12.59796 | -81.68769 | 1079 ft | 164 kts | 56° |
| 2026-05-07 10:02 | 12.60552 | -81.67561 | 1686 ft | 161 kts | 69° |
| 2026-05-07 10:03 | 12.60298 | -81.66122 | 1998 ft | 181 kts | 129° |
| 2026-05-07 10:03 | 12.58802 | -81.65361 | 2321 ft | 204 kts | 162° |
| 2026-05-07 10:03 | 12.57010 | -81.64869 | 2676 ft | 223 kts | 161° |
| 2026-05-07 10:03 | 12.55004 | -81.64298 | 2970 ft | 249 kts | 161° |
| 2026-05-07 10:04 | 12.52807 | -81.63654 | 3410 ft | 268 kts | 158° |
| 2026-05-07 10:04 | 12.50860 | -81.62332 | 4142 ft | 267 kts | 130° |
| 2026-05-07 10:04 | 12.49298 | -81.60549 | 4979 ft | 269 kts | 127° |
| 2026-05-07 10:04 | 12.47748 | -81.58738 | 5743 ft | 272 kts | 129° |
| 2026-05-07 10:05 | 12.46154 | -81.56930 | 6489 ft | 275 kts | 129° |
| 2026-05-07 10:05 | 12.44504 | -81.55097 | 7198 ft | 278 kts | 130° |
| 2026-05-07 10:05 | 12.42850 | -81.53278 | 7915 ft | 281 kts | 130° |
| 2026-05-07 10:05 | 12.41154 | -81.51429 | 8616 ft | 285 kts | 131° |
| 2026-05-07 10:06 | 12.39437 | -81.49566 | 9292 ft | 288 kts | 131° |
| 2026-05-07 10:06 | 12.37698 | -81.47677 | 9948 ft | 291 kts | 131° |
| 2026-05-07 10:06 | 12.35926 | -81.45751 | 10425 ft | 301 kts | 131° |
| 2026-05-07 10:06 | 12.34099 | -81.43767 | 10706 ft | 317 kts | 131° |
| 2026-05-07 10:07 | 12.32211 | -81.41722 | 11142 ft | 326 kts | 131° |
| 2026-05-07 10:07 | 12.30336 | -81.39693 | 11735 ft | 328 kts | 131° |
| 2026-05-07 10:07 | 12.28458 | -81.37665 | 12308 ft | 330 kts | 132° |
| 2026-05-07 10:07 | 12.26561 | -81.35616 | 12871 ft | 332 kts | 131° |
| 2026-05-07 10:08 | 12.24657 | -81.33558 | 13422 ft | 335 kts | 132° |
| 2026-05-07 10:08 | 12.22740 | -81.31486 | 13950 ft | 337 kts | 132° |
| 2026-05-07 10:08 | 12.20819 | -81.29410 | 14573 ft | 340 kts | 132° |
| 2026-05-07 10:08 | 12.18878 | -81.27309 | 15361 ft | 344 kts | 132° |
| 2026-05-07 10:09 | 12.16799 | -81.25059 | 16274 ft | 348 kts | 133° |
| 2026-05-07 10:09 | 12.14722 | -81.22813 | 17189 ft | 352 kts | 133° |
| 2026-05-07 10:09 | 12.12593 | -81.20516 | 17852 ft | 357 kts | 133° |
| 2026-05-07 10:09 | 12.10451 | -81.18206 | 18513 ft | 360 kts | 133° |
| 2026-05-07 10:10 | 12.08283 | -81.15868 | 19174 ft | 363 kts | 133° |
| 2026-05-07 10:10 | 12.06119 | -81.13540 | 19500 ft | 366 kts | 133° |
| 2026-05-07 10:10 | 12.03914 | -81.11171 | 19861 ft | 367 kts | 131° |
| 2026-05-07 10:10 | 12.01722 | -81.08817 | 20291 ft | 367 kts | 130° |
| 2026-05-07 10:11 | 11.99558 | -81.06491 | 20872 ft | 365 kts | 129° |
| 2026-05-07 10:11 | 11.97412 | -81.04170 | 21340 ft | 367 kts | 129° |
| 2026-05-07 10:11 | 11.95214 | -81.01788 | 21770 ft | 370 kts | 128° |
| 2026-05-07 10:11 | 11.93020 | -80.99417 | 22213 ft | 372 kts | 128° |
| 2026-05-07 10:12 | 11.90799 | -80.97021 | 22655 ft | 374 kts | 128° |
| 2026-05-07 10:12 | 11.88579 | -80.94624 | 23081 ft | 377 kts | 128° |
| 2026-05-07 10:12 | 11.86332 | -80.92200 | 23495 ft | 379 kts | 129° |
| 2026-05-07 10:12 | 11.84063 | -80.89754 | 23894 ft | 382 kts | 129° |
| 2026-05-07 10:13 | 11.81787 | -80.87304 | 24288 ft | 385 kts | 129° |
| 2026-05-07 10:13 | 11.79492 | -80.84834 | 24675 ft | 388 kts | 129° |
| 2026-05-07 10:13 | 11.77177 | -80.82348 | 25060 ft | 390 kts | 129° |
| 2026-05-07 10:13 | 11.74841 | -80.79853 | 25432 ft | 393 kts | 130° |
| 2026-05-07 10:14 | 11.72491 | -80.77341 | 25802 ft | 395 kts | 130° |
| 2026-05-07 10:14 | 11.70117 | -80.74806 | 26175 ft | 397 kts | 130° |
| 2026-05-07 10:14 | 11.67743 | -80.72268 | 26527 ft | 400 kts | 130° |
| 2026-05-07 10:14 | 11.65342 | -80.69703 | 26885 ft | 402 kts | 130° |
| 2026-05-07 10:15 | 11.62940 | -80.67136 | 27221 ft | 404 kts | 130° |
| 2026-05-07 10:15 | 11.60513 | -80.64542 | 27562 ft | 407 kts | 130° |
| 2026-05-07 10:15 | 11.58099 | -80.61966 | 27881 ft | 408 kts | 130° |
| 2026-05-07 10:15 | 11.55647 | -80.59345 | 28196 ft | 411 kts | 130° |
| 2026-05-07 10:16 | 11.53189 | -80.56724 | 28524 ft | 413 kts | 130° |
| 2026-05-07 10:16 | 11.50706 | -80.54075 | 28822 ft | 416 kts | 130° |
| 2026-05-07 10:16 | 11.48232 | -80.51436 | 29109 ft | 418 kts | 130° |
| 2026-05-07 10:16 | 11.45749 | -80.48786 | 29371 ft | 422 kts | 130° |
| 2026-05-07 10:17 | 11.43224 | -80.46093 | 29649 ft | 424 kts | 130° |
| 2026-05-07 10:17 | 11.40693 | -80.43394 | 29942 ft | 427 kts | 130° |
| 2026-05-07 10:17 | 11.38143 | -80.40677 | 30213 ft | 429 kts | 130° |
| 2026-05-07 10:17 | 11.35575 | -80.37941 | 30468 ft | 432 kts | 131° |
| 2026-05-07 10:18 | 11.33011 | -80.35207 | 30700 ft | 435 kts | 131° |
| 2026-05-07 10:18 | 11.30411 | -80.32439 | 30945 ft | 438 kts | 131° |
| 2026-05-07 10:18 | 11.27772 | -80.29631 | 31195 ft | 441 kts | 131° |
| 2026-05-07 10:18 | 11.25171 | -80.26861 | 31419 ft | 444 kts | 131° |
| 2026-05-07 10:19 | 11.22516 | -80.24036 | 31655 ft | 447 kts | 131° |
| 2026-05-07 10:19 | 11.19855 | -80.21206 | 31900 ft | 449 kts | 131° |
| 2026-05-07 10:19 | 11.17178 | -80.18357 | 32129 ft | 452 kts | 131° |
| 2026-05-07 10:19 | 11.14470 | -80.15478 | 32372 ft | 454 kts | 131° |
| 2026-05-07 10:20 | 11.11785 | -80.12624 | 32593 ft | 456 kts | 131° |
| 2026-05-07 10:20 | 11.09053 | -80.09719 | 32825 ft | 458 kts | 131° |
| 2026-05-07 10:20 | 11.06359 | -80.06859 | 33125 ft | 459 kts | 132° |
| 2026-05-07 10:20 | 11.03639 | -80.03970 | 33463 ft | 458 kts | 132° |
| 2026-05-07 10:21 | 11.00920 | -80.01083 | 33837 ft | 458 kts | 131° |
| 2026-05-07 10:21 | 10.98200 | -79.98196 | 34219 ft | 457 kts | 131° |
| 2026-05-07 10:21 | 10.95518 | -79.95349 | 34570 ft | 456 kts | 131° |
| 2026-05-07 10:21 | 10.92800 | -79.92463 | 34853 ft | 457 kts | 132° |
| 2026-05-07 10:22 | 10.90082 | -79.89575 | 35093 ft | 458 kts | 132° |
| 2026-05-07 10:22 | 10.87397 | -79.86727 | 35294 ft | 459 kts | 132° |
| 2026-05-07 10:22 | 10.84699 | -79.83868 | 35466 ft | 461 kts | 132° |
| 2026-05-07 10:22 | 10.81957 | -79.80961 | 35642 ft | 463 kts | 132° |
| 2026-05-07 10:23 | 10.79237 | -79.78079 | 35805 ft | 464 kts | 132° |
| 2026-05-07 10:23 | 10.76493 | -79.75173 | 35960 ft | 466 kts | 132° |
| 2026-05-07 10:23 | 10.73756 | -79.72275 | 36121 ft | 467 kts | 132° |
| 2026-05-07 10:23 | 10.70989 | -79.69346 | 36274 ft | 468 kts | 132° |
| 2026-05-07 10:24 | 10.68211 | -79.66408 | 36413 ft | 469 kts | 132° |
| 2026-05-07 10:24 | 10.65421 | -79.63457 | 36522 ft | 471 kts | 132° |
| 2026-05-07 10:24 | 10.62641 | -79.60519 | 36638 ft | 472 kts | 132° |
| 2026-05-07 10:24 | 10.59826 | -79.57537 | 36763 ft | 473 kts | 132° |
| 2026-05-07 10:25 | 10.57016 | -79.54560 | 36882 ft | 474 kts | 132° |
| 2026-05-07 10:25 | 10.51391 | -79.48624 | 36878 ft | 475 kts | 133° |
| 2026-05-07 10:26 | 10.45709 | -79.42725 | 36879 ft | 476 kts | 133° |
| 2026-05-07 10:26 | 10.40028 | -79.36830 | 36881 ft | 477 kts | 133° |
| 2026-05-07 10:27 | 10.34327 | -79.30907 | 36883 ft | 477 kts | 133° |
| 2026-05-07 10:27 | 10.28647 | -79.25011 | 36883 ft | 476 kts | 133° |
| 2026-05-07 10:28 | 10.22975 | -79.19130 | 36875 ft | 477 kts | 133° |
| 2026-05-07 10:28 | 10.17285 | -79.13229 | 36870 ft | 478 kts | 133° |
| 2026-05-07 10:29 | 10.11548 | -79.07282 | 36867 ft | 478 kts | 133° |
| 2026-05-07 10:29 | 10.05785 | -79.01313 | 36868 ft | 479 kts | 133° |
| 2026-05-07 10:30 | 9.97207 | -78.92428 | 36881 ft | 477 kts | 133° |
| 2026-05-07 10:30 | 9.91470 | -78.86494 | 36883 ft | 479 kts | 133° |
| 2026-05-07 10:31 | 9.85768 | -78.80592 | 36885 ft | 479 kts | 133° |
| 2026-05-07 10:31 | 9.80051 | -78.74685 | 36875 ft | 479 kts | 133° |
| 2026-05-07 10:32 | 9.74325 | -78.68764 | 36870 ft | 478 kts | 133° |
| 2026-05-07 10:32 | 9.68560 | -78.62807 | 36868 ft | 478 kts | 133° |
| 2026-05-07 10:33 | 9.62801 | -78.56863 | 36872 ft | 478 kts | 133° |
| 2026-05-07 10:33 | 9.57046 | -78.50925 | 36876 ft | 477 kts | 133° |
| 2026-05-07 10:34 | 9.51270 | -78.44970 | 36881 ft | 477 kts | 133° |
| 2026-05-07 10:34 | 9.45517 | -78.39042 | 36883 ft | 477 kts | 133° |
| 2026-05-07 10:35 | 9.39714 | -78.33067 | 36884 ft | 477 kts | 133° |
| 2026-05-07 10:35 | 9.33979 | -78.27159 | 36889 ft | 477 kts | 133° |
| 2026-05-07 10:36 | 9.28221 | -78.21234 | 36905 ft | 477 kts | 133° |
| 2026-05-07 10:36 | 9.22611 | -78.15265 | 36898 ft | 477 kts | 131° |
| 2026-05-07 10:37 | 9.17044 | -78.09169 | 36899 ft | 477 kts | 131° |
| 2026-05-07 10:37 | 9.11500 | -78.03127 | 36906 ft | 476 kts | 131° |
| 2026-05-07 10:38 | 9.05932 | -77.97074 | 36909 ft | 476 kts | 131° |
| 2026-05-07 10:38 | 9.00316 | -77.90974 | 36910 ft | 477 kts | 131° |
| 2026-05-07 10:39 | 8.94739 | -77.84919 | 36903 ft | 476 kts | 131° |
| 2026-05-07 10:39 | 8.89166 | -77.78871 | 36897 ft | 475 kts | 131° |
| 2026-05-07 10:40 | 8.83609 | -77.72843 | 36899 ft | 475 kts | 131° |
| 2026-05-07 10:40 | 8.78076 | -77.66844 | 36901 ft | 475 kts | 131° |
| 2026-05-07 10:41 | 8.72497 | -77.60799 | 36895 ft | 475 kts | 131° |
| 2026-05-07 10:41 | 8.67004 | -77.54848 | 36896 ft | 474 kts | 132° |
| 2026-05-07 10:42 | 8.61467 | -77.48852 | 36901 ft | 475 kts | 131° |
| 2026-05-07 10:42 | 8.55950 | -77.42880 | 36905 ft | 474 kts | 132° |
| 2026-05-07 10:43 | 8.50188 | -77.37199 | 36899 ft | 474 kts | 135° |
| 2026-05-07 10:43 | 8.44377 | -77.31674 | 36903 ft | 473 kts | 136° |
| 2026-05-07 10:44 | 8.38464 | -77.26046 | 36917 ft | 473 kts | 136° |
| 2026-05-07 10:44 | 8.32634 | -77.20493 | 36942 ft | 473 kts | 136° |
| 2026-05-07 10:45 | 8.26760 | -77.14898 | 36947 ft | 472 kts | 136° |
| 2026-05-07 10:45 | 8.20908 | -77.09328 | 36938 ft | 472 kts | 136° |
| 2026-05-07 10:46 | 8.15104 | -77.03806 | 36906 ft | 472 kts | 136° |
| 2026-05-07 10:46 | 8.09281 | -76.98267 | 36877 ft | 471 kts | 136° |
| 2026-05-07 10:47 | 8.03466 | -76.92738 | 36883 ft | 470 kts | 136° |
| 2026-05-07 10:47 | 7.97675 | -76.87234 | 36888 ft | 470 kts | 136° |
| 2026-05-07 10:48 | 7.91842 | -76.81693 | 36895 ft | 470 kts | 136° |
| 2026-05-07 10:48 | 7.86151 | -76.76286 | 36895 ft | 470 kts | 136° |
| 2026-05-07 10:49 | 7.80310 | -76.71146 | 36904 ft | 470 kts | 142° |
| 2026-05-07 10:49 | 7.73938 | -76.66548 | 36920 ft | 469 kts | 144° |
| 2026-05-07 10:50 | 7.67502 | -76.61985 | 36946 ft | 470 kts | 144° |
| 2026-05-07 10:50 | 7.61116 | -76.57445 | 36972 ft | 468 kts | 144° |
| 2026-05-07 10:51 | 7.54690 | -76.52876 | 36990 ft | 468 kts | 144° |
| 2026-05-07 10:51 | 7.48198 | -76.48258 | 37000 ft | 469 kts | 144° |
| 2026-05-07 10:52 | 7.41678 | -76.43621 | 37010 ft | 469 kts | 144° |
| 2026-05-07 10:52 | 7.35173 | -76.38995 | 37052 ft | 468 kts | 144° |
| 2026-05-07 10:53 | 7.28702 | -76.34393 | 37112 ft | 467 kts | 144° |
| 2026-05-07 10:53 | 7.22195 | -76.29769 | 37213 ft | 468 kts | 144° |
| 2026-05-07 10:54 | 7.15630 | -76.25107 | 37232 ft | 468 kts | 144° |
| 2026-05-07 10:54 | 7.09082 | -76.20455 | 36644 ft | 469 kts | 144° |
| 2026-05-07 10:55 | 7.05837 | -76.18150 | 35747 ft | 469 kts | 144° |
| 2026-05-07 10:55 | 7.02560 | -76.15822 | 34866 ft | 467 kts | 144° |
| 2026-05-07 10:55 | 6.99276 | -76.13490 | 33967 ft | 465 kts | 144° |
| 2026-05-07 10:55 | 6.96058 | -76.11207 | 32951 ft | 461 kts | 144° |
| 2026-05-07 10:56 | 6.92843 | -76.08928 | 32517 ft | 452 kts | 144° |
| 2026-05-07 10:56 | 6.89667 | -76.06673 | 32475 ft | 450 kts | 144° |
| 2026-05-07 10:56 | 6.86516 | -76.04433 | 31784 ft | 455 kts | 144° |
| 2026-05-07 10:56 | 6.83266 | -76.02127 | 30802 ft | 456 kts | 144° |
| 2026-05-07 10:57 | 6.80065 | -75.99858 | 30066 ft | 450 kts | 144° |
| 2026-05-07 10:57 | 6.76965 | -75.97654 | 29398 ft | 442 kts | 143° |
| 2026-05-07 10:57 | 6.74078 | -75.95303 | 28766 ft | 433 kts | 137° |
| 2026-05-07 10:57 | 6.71548 | -75.92760 | 28228 ft | 422 kts | 131° |
| 2026-05-07 10:58 | 6.69237 | -75.90018 | 27719 ft | 417 kts | 129° |
| 2026-05-07 10:58 | 6.66969 | -75.87245 | 27286 ft | 414 kts | 129° |
| 2026-05-07 10:58 | 6.64678 | -75.84443 | 26817 ft | 411 kts | 129° |
| 2026-05-07 10:58 | 6.62416 | -75.81692 | 26293 ft | 408 kts | 129° |
| 2026-05-07 10:59 | 6.60180 | -75.78986 | 25721 ft | 404 kts | 129° |
| 2026-05-07 10:59 | 6.57985 | -75.76321 | 25136 ft | 400 kts | 129° |
| 2026-05-07 10:59 | 6.55768 | -75.73630 | 24539 ft | 397 kts | 129° |
| 2026-05-07 10:59 | 6.53642 | -75.71049 | 23957 ft | 393 kts | 129° |
| 2026-05-07 11:00 | 6.51545 | -75.68505 | 23409 ft | 389 kts | 128° |
| 2026-05-07 11:00 | 6.49430 | -75.65939 | 22860 ft | 384 kts | 128° |
| 2026-05-07 11:00 | 6.47358 | -75.63426 | 22337 ft | 380 kts | 128° |
| 2026-05-07 11:00 | 6.45297 | -75.60926 | 21834 ft | 376 kts | 128° |
| 2026-05-07 11:01 | 6.43287 | -75.58490 | 21340 ft | 372 kts | 128° |
| 2026-05-07 11:01 | 6.41237 | -75.56069 | 20848 ft | 369 kts | 134° |
| 2026-05-07 11:01 | 6.38692 | -75.54427 | 20351 ft | 372 kts | 159° |
| 2026-05-07 11:01 | 6.35669 | -75.53957 | 19814 ft | 373 kts | 177° |
| 2026-05-07 11:02 | 6.32621 | -75.53936 | 19280 ft | 372 kts | 178° |
| 2026-05-07 11:02 | 6.29545 | -75.53926 | 18740 ft | 370 kts | 178° |
| 2026-05-07 11:02 | 6.26459 | -75.53901 | 18203 ft | 368 kts | 178° |
| 2026-05-07 11:02 | 6.23375 | -75.53859 | 17657 ft | 365 kts | 177° |
| 2026-05-07 11:03 | 6.20296 | -75.53806 | 17127 ft | 362 kts | 176° |
| 2026-05-07 11:03 | 6.17276 | -75.53752 | 16624 ft | 356 kts | 176° |
| 2026-05-07 11:03 | 6.14302 | -75.53695 | 16133 ft | 352 kts | 176° |
| 2026-05-07 11:03 | 6.11363 | -75.53655 | 15637 ft | 349 kts | 178° |
| 2026-05-07 11:04 | 6.08383 | -75.53676 | 15157 ft | 343 kts | 178° |
| 2026-05-07 11:04 | 6.05497 | -75.53715 | 14670 ft | 330 kts | 178° |
| 2026-05-07 11:04 | 6.02757 | -75.53748 | 14138 ft | 315 kts | 178° |
| 2026-05-07 11:04 | 6.00171 | -75.53779 | 13812 ft | 293 kts | 178° |
| 2026-05-07 11:05 | 5.97798 | -75.53798 | 13675 ft | 272 kts | 178° |
| 2026-05-07 11:05 | 5.95524 | -75.53812 | 13539 ft | 264 kts | 179° |
| 2026-05-07 11:05 | 5.93285 | -75.53830 | 13411 ft | 265 kts | 179° |
| 2026-05-07 11:05 | 5.91015 | -75.53849 | 13277 ft | 266 kts | 177° |
| 2026-05-07 11:06 | 5.88941 | -75.53341 | 13075 ft | 260 kts | 143° |
| 2026-05-07 11:06 | 5.87655 | -75.51753 | 12949 ft | 245 kts | 109° |
| 2026-05-07 11:06 | 5.87384 | -75.49819 | 12797 ft | 235 kts | 89° |
| 2026-05-07 11:06 | 5.87441 | -75.47830 | 12522 ft | 231 kts | 88° |
| 2026-05-07 11:07 | 5.87497 | -75.45863 | 12235 ft | 227 kts | 89° |
| 2026-05-07 11:07 | 5.87614 | -75.43971 | 12129 ft | 229 kts | 73° |
| 2026-05-07 11:07 | 5.88718 | -75.42501 | 11884 ft | 228 kts | 26° |
| 2026-05-07 11:07 | 5.90518 | -75.42078 | 11586 ft | 224 kts | 2° |
| 2026-05-07 11:08 | 5.92370 | -75.42088 | 11286 ft | 219 kts | 359° |
| 2026-05-07 11:08 | 5.94192 | -75.42145 | 10912 ft | 214 kts | 359° |
| 2026-05-07 11:08 | 5.95911 | -75.42177 | 10540 ft | 209 kts | 360° |
| 2026-05-07 11:08 | 5.97626 | -75.42191 | 10209 ft | 202 kts | 0° |
| 2026-05-07 11:09 | 5.99282 | -75.42203 | 9843 ft | 198 kts | 0° |
| 2026-05-07 11:09 | 6.00873 | -75.42212 | 9641 ft | 187 kts | 360° |
| 2026-05-07 11:09 | 6.02405 | -75.42223 | 9341 ft | 186 kts | 0° |
| 2026-05-07 11:09 | 6.03937 | -75.42235 | 9030 ft | 186 kts | 1° |